Time;durP1;ratioP1;P1;durP2;ratioP2;P2;SDS_P1;SDS_P2;PMS_P1;PMS_P2;Temp;Humidity;BMP_temperature;BMP_pressure;BME280_temperature;BME280_humidity;BME280_pressure;Samples;Min_cycle;Max_cycle;Signal;HPM_P1;HPM_P2
2022/11/29 00:00:30;;;;;;;5.30;4.32;;;20.90;89.20;;;;;;4985843;28;20204;-78
2022/11/29 00:02:56;;;;;;;11.23;6.53;;;20.80;90.20;;;;;;4992437;28;20557;-77
2022/11/29 00:05:23;;;;;;;9.30;4.67;;;20.70;90.20;;;;;;4992776;28;20451;-77
2022/11/29 00:07:50;;;;;;;9.50;5.70;;;20.80;90.20;;;;;;5001073;28;20507;-77
2022/11/29 00:10:18;;;;;;;12.90;5.32;;;20.80;90.10;;;;;;4988304;28;20204;-78
2022/11/29 00:12:46;;;;;;;10.18;5.45;;;20.80;90.00;;;;;;5003521;28;20224;-77
2022/11/29 00:15:13;;;;;;;8.80;4.70;;;20.80;89.70;;;;;;4960073;28;1073789;-78
2022/11/29 00:17:40;;;;;;;7.75;5.10;;;20.80;89.60;;;;;;5003095;28;20724;-76
2022/11/29 00:20:09;;;;;;;8.32;4.57;;;20.80;89.60;;;;;;4989912;28;20209;-77
2022/11/29 00:22:35;;;;;;;5.22;4.32;;;20.80;89.60;;;;;;4992736;28;20591;-77
2022/11/29 00:25:02;;;;;;;9.93;4.88;;;20.80;89.60;;;;;;4998881;28;20205;-77
2022/11/29 00:27:30;;;;;;;7.32;5.85;;;20.80;89.40;;;;;;4996275;28;20680;-78
2022/11/29 00:29:57;;;;;;;6.32;4.60;;;20.80;89.20;;;;;;4988750;28;20208;-79
2022/11/29 00:32:24;;;;;;;6.28;5.28;;;20.80;89.00;;;;;;4990511;28;20220;-77
2022/11/29 00:34:51;;;;;;;5.75;4.82;;;20.80;88.90;;;;;;4986885;28;20564;-79
2022/11/29 00:37:17;;;;;;;8.30;4.78;;;20.70;89.00;;;;;;4987497;28;20226;-78
2022/11/29 00:39:44;;;;;;;5.60;4.93;;;20.70;89.70;;;;;;4999322;28;20648;-76
2022/11/29 00:42:11;;;;;;;6.45;4.50;;;20.70;89.70;;;;;;4996856;28;20475;-78
2022/11/29 00:44:39;;;;;;;7.00;5.10;;;20.70;89.60;;;;;;4988499;28;20240;-79
2022/11/29 00:47:05;;;;;;;10.48;5.60;;;20.70;89.50;;;;;;4994485;28;20224;-77
2022/11/29 00:49:32;;;;;;;8.07;5.05;;;20.70;89.60;;;;;;4999665;28;20205;-80
2022/11/29 00:51:59;;;;;;;5.43;4.57;;;20.70;89.60;;;;;;4994852;28;20647;-77
2022/11/29 00:54:26;;;;;;;7.83;5.00;;;20.70;90.10;;;;;;4990469;28;20496;-78
2022/11/29 00:56:53;;;;;;;5.78;4.55;;;20.70;89.40;;;;;;4990286;28;20755;-77
2022/11/29 00:59:20;;;;;;;5.18;4.50;;;20.70;89.20;;;;;;5003557;28;20751;-81
2022/11/29 01:01:48;;;;;;;6.03;4.47;;;20.70;88.80;;;;;;4990769;28;20201;-80
2022/11/29 01:04:15;;;;;;;6.82;4.68;;;20.80;88.70;;;;;;4987668;28;20560;-77
2022/11/29 01:06:41;;;;;;;6.25;5.22;;;20.80;88.40;;;;;;4992870;28;20197;-77
2022/11/29 01:09:08;;;;;;;7.22;4.20;;;20.70;88.50;;;;;;4992171;28;20197;-77
2022/11/29 01:11:35;;;;;;;6.15;4.40;;;20.70;88.70;;;;;;4999681;28;20323;-78
2022/11/29 01:14:03;;;;;;;6.18;4.40;;;20.70;88.80;;;;;;4993556;28;20572;-78
2022/11/29 01:16:31;;;;;;;4.80;4.32;;;20.60;89.20;;;;;;4996395;28;20232;-78
2022/11/29 01:18:59;;;;;;;5.25;3.95;;;20.60;89.30;;;;;;4998768;28;20220;-79
2022/11/29 01:21:26;;;;;;;7.10;4.68;;;20.60;89.10;;;;;;4989089;28;20205;-77
2022/11/29 01:23:55;;;;;;;6.10;4.25;;;20.60;89.00;;;;;;4993632;28;20647;-77
2022/11/29 01:26:24;;;;;;;4.70;4.15;;;20.70;89.00;;;;;;4993696;28;20652;-78
2022/11/29 01:28:53;;;;;;;4.85;4.32;;;20.60;89.00;;;;;;4996060;28;20600;-77
2022/11/29 01:31:22;;;;;;;5.13;3.97;;;20.60;88.90;;;;;;4987783;28;20299;-77
2022/11/29 01:33:52;;;;;;;6.30;5.00;;;20.60;88.60;;;;;;4990109;28;20460;-77
2022/11/29 01:36:20;;;;;;;6.67;4.13;;;20.70;88.50;;;;;;4991969;28;20649;-77
2022/11/29 01:38:47;;;;;;;4.60;4.15;;;20.70;88.20;;;;;;4990579;28;20471;-77
2022/11/29 01:41:16;;;;;;;8.48;4.93;;;20.70;88.20;;;;;;5001560;28;20193;-79
2022/11/29 01:44:02;;;;;;;6.22;4.55;;;20.70;88.30;;;;;;5004079;28;20193;-78
2022/11/29 01:46:31;;;;;;;8.10;5.07;;;20.60;88.50;;;;;;4999507;28;20204;-78
2022/11/29 01:49:01;;;;;;;4.50;4.10;;;20.60;88.60;;;;;;4993763;28;20225;-78
2022/11/29 01:51:30;;;;;;;4.35;3.95;;;20.50;88.70;;;;;;5004251;28;20359;-78
2022/11/29 01:53:58;;;;;;;4.68;4.18;;;20.50;89.00;;;;;;4978601;28;20198;-79
2022/11/29 01:56:25;;;;;;;4.35;3.95;;;20.60;89.00;;;;;;4988028;28;20197;-78
2022/11/29 01:58:52;;;;;;;5.00;3.90;;;20.60;88.80;;;;;;5002879;28;20193;-78
2022/11/29 02:01:19;;;;;;;6.22;3.95;;;20.60;88.70;;;;;;4991414;28;20205;-79
2022/11/29 02:03:46;;;;;;;6.55;4.00;;;20.60;88.60;;;;;;4992814;28;20204;-78
2022/11/29 02:06:14;;;;;;;6.78;4.18;;;20.60;88.60;;;;;;5003661;28;20201;-78
2022/11/29 02:08:43;;;;;;;4.55;3.85;;;20.60;88.40;;;;;;4976870;28;20225;-80
2022/11/29 02:11:42;;;;;;;4.93;4.03;;;20.60;89.10;;;;;;5000788;28;20410;-78
2022/11/29 02:14:23;;;;;;;5.40;3.65;;;20.60;88.10;;;;;;4985224;28;20675;-78
2022/11/29 02:16:58;;;;;;;5.25;4.55;;;20.60;87.90;;;;;;4988130;28;20232;-78
2022/11/29 02:20:00;;;;;;;4.47;3.63;;;20.60;88.00;;;;;;4998979;28;20579;-78
2022/11/29 02:22:33;;;;;;;5.55;4.30;;;20.60;88.10;;;;;;4990752;28;20680;-78
2022/11/29 02:25:17;;;;;;;4.50;3.60;;;20.50;88.10;;;;;;4997209;28;20197;-80
2022/11/29 02:28:23;;;;;;;5.47;4.50;;;20.50;88.10;;;;;;4994451;28;20221;-77
2022/11/29 02:31:17;;;;;;;5.47;4.28;;;20.50;88.50;;;;;;4995373;28;20545;-77
2022/11/29 02:34:10;;;;;;;4.90;4.40;;;20.50;88.90;;;;;;4996549;28;20656;-78
2022/11/29 02:36:50;;;;;;;6.22;3.33;;;20.50;88.70;;;;;;4992221;28;20201;-77
2022/11/29 02:39:59;;;;;;;6.45;4.32;;;20.50;88.70;;;;;;4991824;28;20198;-78
2022/11/29 02:42:59;;;;;;;4.18;3.40;;;20.50;88.50;;;;;;4911313;29;20686;-77
2022/11/29 02:45:45;;;;;;;5.38;4.25;;;20.40;88.60;;;;;;4988732;28;20204;-78
2022/11/29 02:48:29;;;;;;;3.70;3.40;;;20.50;88.30;;;;;;4995946;28;20227;-77
2022/11/29 02:51:04;;;;;;;4.07;2.80;;;20.60;88.10;;;;;;4988314;28;20199;-78
2022/11/29 02:53:38;;;;;;;4.45;3.53;;;20.60;87.80;;;;;;4992707;28;20212;-77
2022/11/29 02:56:12;;;;;;;3.63;3.33;;;20.60;87.70;;;;;;4993277;28;20671;-77
2022/11/29 02:58:47;;;;;;;3.33;3.00;;;20.60;87.70;;;;;;4996831;28;20193;-79
2022/11/29 03:01:20;;;;;;;5.07;3.78;;;20.50;87.80;;;;;;4992034;28;20201;-79
2022/11/29 03:03:54;;;;;;;4.30;3.53;;;20.50;87.90;;;;;;5000566;28;20200;-79
2022/11/29 03:06:30;;;;;;;3.45;3.15;;;20.40;88.10;;;;;;4994556;28;20215;-78
2022/11/29 03:09:06;;;;;;;4.90;3.50;;;20.40;88.30;;;;;;4993414;28;20221;-78
2022/11/29 03:11:40;;;;;;;4.50;3.53;;;20.40;88.70;;;;;;4994334;28;20204;-78
2022/11/29 03:14:17;;;;;;;3.20;3.00;;;20.40;88.60;;;;;;4988688;28;20188;-79
2022/11/29 03:16:54;;;;;;;3.28;2.97;;;20.40;88.50;;;;;;5000024;28;20725;-78
2022/11/29 03:19:36;;;;;;;5.10;3.28;;;20.40;88.50;;;;;;4990821;28;20212;-78
2022/11/29 03:22:12;;;;;;;5.05;3.15;;;20.40;88.50;;;;;;4993161;28;20268;-78
2022/11/29 03:24:49;;;;;;;3.90;3.50;;;20.40;88.20;;;;;;4990501;28;20197;-78
2022/11/29 03:27:21;;;;;;;5.28;3.78;;;20.40;88.10;;;;;;5001130;28;20200;-80
2022/11/29 03:29:56;;;;;;;3.30;3.00;;;20.50;88.70;;;;;;4995032;28;20232;-80
2022/11/29 03:32:29;;;;;;;4.00;3.60;;;20.50;87.60;;;;;;4987800;28;20200;-77
2022/11/29 03:35:03;;;;;;;4.40;4.00;;;20.50;87.70;;;;;;4987933;28;20201;-79
2022/11/29 03:37:42;;;;;;;5.47;3.00;;;20.50;87.80;;;;;;5000750;28;20200;-78
2022/11/29 03:40:12;;;;;;;4.25;3.45;;;20.50;87.70;;;;;;4988250;28;20201;-77
2022/11/29 03:42:48;;;;;;;5.03;3.20;;;20.40;87.70;;;;;;4993021;28;20196;-78
2022/11/29 03:45:22;;;;;;;4.53;3.63;;;20.40;87.90;;;;;;4991223;28;20200;-78
2022/11/29 03:47:56;;;;;;;4.20;3.80;;;20.30;88.10;;;;;;4998698;28;20675;-77
2022/11/29 03:50:27;;;;;;;3.70;2.92;;;20.40;88.10;;;;;;5005100;28;20193;-77
2022/11/29 03:53:01;;;;;;;3.80;3.50;;;20.40;88.20;;;;;;4985817;28;20201;-78
2022/11/29 03:55:46;;;;;;;2.97;2.75;;;20.30;88.50;;;;;;4985625;28;20682;-78
2022/11/29 03:58:24;;;;;;;3.15;2.85;;;20.30;88.60;;;;;;5007153;28;20196;-78
2022/11/29 04:01:20;;;;;;;3.65;3.35;;;20.30;88.50;;;;;;4990885;28;20204;-79
2022/11/29 04:04:06;;;;;;;3.50;3.10;;;20.30;88.50;;;;;;4990806;28;20668;-78
2022/11/29 04:06:51;;;;;;;5.35;3.35;;;20.30;88.40;;;;;;5001257;28;20207;-78
2022/11/29 04:09:45;;;;;;;2.65;2.45;;;20.40;88.20;;;;;;4987100;28;20589;-76
2022/11/29 04:12:41;;;;;;;3.28;2.97;;;20.40;87.80;;;;;;4996443;28;20208;-78
2022/11/29 04:15:45;;;;;;;3.80;3.50;;;20.40;87.60;;;;;;4951560;28;20208;-79
2022/11/29 04:18:51;;;;;;;3.15;2.72;;;20.40;87.80;;;;;;4991043;28;20667;-79
2022/11/29 04:21:49;;;;;;;4.00;3.08;;;20.30;88.00;;;;;;4968180;28;20212;-77
2022/11/29 04:24:46;;;;;;;6.18;3.63;;;20.30;88.10;;;;;;4957356;28;20212;-77
2022/11/29 04:27:40;;;;;;;5.38;3.67;;;20.30;88.30;;;;;;4997197;28;20200;-78
2022/11/29 04:30:16;;;;;;;3.60;3.30;;;20.20;88.60;;;;;;4984860;28;20668;-77
2022/11/29 04:33:18;;;;;;;3.80;3.40;;;20.30;88.90;;;;;;4999915;28;20208;-77
2022/11/29 04:35:58;;;;;;;3.20;2.63;;;20.40;88.50;;;;;;4992209;28;20652;-79
2022/11/29 04:38:47;;;;;;;4.15;3.22;;;20.40;88.30;;;;;;4991263;28;20208;-79
2022/11/29 04:41:40;;;;;;;3.22;2.92;;;20.40;88.20;;;;;;4992675;28;20659;-79
2022/11/29 04:44:23;;;;;;;2.80;2.60;;;20.40;88.30;;;;;;4992260;28;20660;-77
2022/11/29 04:47:11;;;;;;;3.53;2.72;;;20.40;88.20;;;;;;4998871;28;20644;-78
2022/11/29 04:49:58;;;;;;;3.05;2.75;;;20.30;88.20;;;;;;4990872;28;20240;-77
2022/11/29 04:52:42;;;;;;;4.43;3.20;;;20.40;88.00;;;;;;5000666;28;20189;-78
2022/11/29 04:55:19;;;;;;;2.80;2.50;;;20.30;88.20;;;;;;4984534;28;20205;-77
2022/11/29 04:57:51;;;;;;;3.97;2.83;;;20.30;88.20;;;;;;4988705;28;20202;-77
2022/11/29 05:00:20;;;;;;;6.85;3.15;;;20.40;87.90;;;;;;4990935;28;20197;-78
2022/11/29 05:02:55;;;;;;;4.53;3.03;;;20.40;87.50;;;;;;4996224;28;20204;-77
2022/11/29 05:05:33;;;;;;;3.25;2.88;;;20.40;87.10;;;;;;4980071;28;20257;-77
2022/11/29 05:08:16;;;;;;;2.97;2.67;;;20.50;87.00;;;;;;4983321;28;20197;-78
2022/11/29 05:10:52;;;;;;;2.83;2.42;;;20.40;87.10;;;;;;4983515;28;20197;-79
2022/11/29 05:13:28;;;;;;;3.08;2.80;;;20.40;87.30;;;;;;4990453;28;20215;-79
2022/11/29 05:16:12;;;;;;;3.40;3.10;;;20.40;87.40;;;;;;4996266;28;20227;-78
2022/11/29 05:19:08;;;;;;;3.88;2.97;;;20.30;87.30;;;;;;5003134;28;20537;-80
2022/11/29 05:21:46;;;;;;;3.10;2.67;;;20.30;87.40;;;;;;4992194;28;20209;-79
2022/11/29 05:24:27;;;;;;;2.92;2.63;;;20.30;87.50;;;;;;4987936;28;20212;-78
2022/11/29 05:27:00;;;;;;;3.45;2.85;;;20.30;87.60;;;;;;4984563;28;20205;-77
2022/11/29 05:29:33;;;;;;;3.05;2.58;;;20.30;87.70;;;;;;5003980;28;20213;-78
2022/11/29 05:32:18;;;;;;;3.10;2.65;;;20.20;87.80;;;;;;4990221;28;20205;-78
2022/11/29 05:35:00;;;;;;;3.15;2.20;;;20.20;88.10;;;;;;4992778;28;20197;-78
2022/11/29 05:37:38;;;;;;;3.45;2.40;;;20.20;88.20;;;;;;5002937;28;20573;-77
2022/11/29 05:40:37;;;;;;;2.78;2.58;;;20.30;88.30;;;;;;4982945;28;20670;-78
2022/11/29 05:43:18;;;;;;;3.35;3.05;;;20.30;87.80;;;;;;4994522;28;20201;-77
2022/11/29 05:45:52;;;;;;;3.05;2.30;;;20.40;87.60;;;;;;5005641;28;20203;-77
2022/11/29 05:48:26;;;;;;;2.80;2.58;;;20.40;87.40;;;;;;5003610;28;20208;-77
2022/11/29 05:51:05;;;;;;;2.88;2.38;;;20.50;87.20;;;;;;4986959;28;20211;-79
2022/11/29 05:53:42;;;;;;;3.20;2.58;;;20.60;87.10;;;;;;4988535;28;20220;-77
2022/11/29 05:56:15;;;;;;;3.88;3.30;;;20.60;86.90;;;;;;4992417;28;20199;-78
2022/11/29 05:58:49;;;;;;;3.28;2.97;;;20.70;86.70;;;;;;4996551;28;20366;-78
2022/11/29 06:01:22;;;;;;;3.00;2.70;;;20.70;86.50;;;;;;4998251;28;20211;-79
2022/11/29 06:03:56;;;;;;;2.67;2.40;;;20.80;86.50;;;;;;4995061;28;20247;-78
2022/11/29 06:06:32;;;;;;;2.40;2.20;;;20.80;86.20;;;;;;4995977;28;20197;-78
2022/11/29 06:09:08;;;;;;;2.58;2.38;;;20.80;86.10;;;;;;4987454;28;20221;-79
2022/11/29 06:11:39;;;;;;;2.13;1.93;;;20.90;86.10;;;;;;4990903;28;20193;-77
2022/11/29 06:14:14;;;;;;;2.60;2.40;;;20.90;85.90;;;;;;4994249;28;20464;-77
2022/11/29 06:17:24;;;;;;;2.78;2.50;;;20.90;85.70;;;;;;5000225;28;20471;-78
2022/11/29 06:20:09;;;;;;;2.85;2.55;;;21.00;85.60;;;;;;4967800;28;20197;-78
2022/11/29 06:22:56;;;;;;;2.57;2.27;;;21.00;85.50;;;;;;4990002;28;20216;-77
2022/11/29 06:25:38;;;;;;;2.63;2.43;;;21.00;85.60;;;;;;4992321;28;20479;-78
2022/11/29 06:28:22;;;;;;;2.10;1.90;;;20.90;85.60;;;;;;4996350;28;20463;-77
2022/11/29 06:30:59;;;;;;;2.20;2.00;;;21.00;85.70;;;;;;5008683;28;20606;-77
2022/11/29 06:33:36;;;;;;;3.40;2.57;;;21.00;85.60;;;;;;4995553;28;20205;-77
2022/11/29 06:36:17;;;;;;;2.77;2.10;;;21.00;85.40;;;;;;4986033;28;20494;-77
2022/11/29 06:38:44;;;;;;;3.50;3.20;;;21.00;85.30;;;;;;4988160;28;20950;-78
2022/11/29 06:41:18;;;;;;;2.60;2.40;;;21.00;85.20;;;;;;4995290;28;20470;-78
2022/11/29 06:43:45;;;;;;;2.40;2.20;;;21.10;85.20;;;;;;5002232;28;20807;-77
2022/11/29 06:46:18;;;;;;;2.83;2.40;;;21.00;85.00;;;;;;4992909;28;20471;-77
2022/11/29 06:48:52;;;;;;;3.20;1.93;;;21.10;85.00;;;;;;4989142;28;20475;-78
2022/11/29 06:51:26;;;;;;;2.70;2.50;;;21.10;84.90;;;;;;4993829;28;20947;-78
2022/11/29 06:53:59;;;;;;;3.30;2.70;;;21.10;84.80;;;;;;4989651;28;20479;-78
2022/11/29 06:56:36;;;;;;;2.27;2.07;;;21.10;84.90;;;;;;4995910;28;20456;-78
2022/11/29 06:59:07;;;;;;;3.43;2.20;;;21.10;84.80;;;;;;4997772;28;20462;-78
2022/11/29 07:01:40;;;;;;;2.37;1.80;;;21.10;84.80;;;;;;4997595;28;20827;-79
2022/11/29 07:04:28;;;;;;;2.70;2.50;;;21.10;84.80;;;;;;4990386;28;20831;-77
2022/11/29 07:06:55;;;;;;;2.70;2.50;;;21.20;84.90;;;;;;4993311;28;20467;-78
2022/11/29 07:09:28;;;;;;;2.70;1.93;;;21.10;84.80;;;;;;4988901;28;21010;-78
2022/11/29 07:11:55;;;;;;;2.90;2.70;;;21.10;84.80;;;;;;4987492;28;20963;-80
2022/11/29 07:14:22;;;;;;;2.77;2.47;;;21.20;84.90;;;;;;5004289;28;20464;-79
2022/11/29 07:16:56;;;;;;;3.33;2.47;;;21.10;84.80;;;;;;4998486;28;21044;-79
2022/11/29 07:19:35;;;;;;;2.40;2.20;;;21.10;84.80;;;;;;5003650;28;20456;-80
2022/11/29 07:22:15;;;;;;;3.00;2.03;;;21.10;84.80;;;;;;4983138;28;20471;-79
2022/11/29 07:24:54;;;;;;;2.63;2.27;;;21.10;84.80;;;;;;4989267;28;20459;-78
2022/11/29 07:27:29;;;;;;;2.27;1.93;;;21.10;84.90;;;;;;4997207;28;20989;-80
2022/11/29 07:30:09;;;;;;;2.27;2.03;;;21.10;84.90;;;;;;4994785;28;20482;-80
2022/11/29 07:32:49;;;;;;;2.30;2.10;;;21.10;84.80;;;;;;4995738;28;20455;-79
2022/11/29 07:35:24;;;;;;;2.17;1.97;;;21.10;84.80;;;;;;4991209;28;20452;-78
2022/11/29 07:38:01;;;;;;;1.80;1.70;;;21.10;84.90;;;;;;4989653;28;20459;-78
2022/11/29 07:40:35;;;;;;;2.10;1.90;;;21.10;84.90;;;;;;4994312;28;20455;-79
2022/11/29 07:43:16;;;;;;;3.03;2.73;;;21.10;84.80;;;;;;4991250;28;20474;-80
2022/11/29 07:45:44;;;;;;;3.80;3.07;;;21.20;84.90;;;;;;4992685;28;20584;-77
2022/11/29 07:48:13;;;;;;;2.50;2.30;;;21.20;84.90;;;;;;4995533;28;21312;-80
2022/11/29 07:50:41;;;;;;;2.23;2.03;;;21.20;85.00;;;;;;4981018;28;20487;-79
2022/11/29 07:53:14;;;;;;;2.30;1.90;;;21.20;84.90;;;;;;4988673;28;20464;-78
2022/11/29 07:55:41;;;;;;;2.50;2.30;;;21.20;84.90;;;;;;4988255;28;20464;-78
2022/11/29 07:58:11;;;;;;;3.17;2.07;;;21.20;84.80;;;;;;4998536;28;20985;-78
2022/11/29 08:00:38;;;;;;;2.50;2.30;;;21.20;84.80;;;;;;4993497;28;20808;-77
2022/11/29 08:03:04;;;;;;;2.60;1.97;;;21.20;84.80;;;;;;4987656;28;20829;-79
2022/11/29 08:05:31;;;;;;;1.97;1.77;;;21.20;85.00;;;;;;4998242;28;20473;-77
2022/11/29 08:07:59;;;;;;;3.77;2.17;;;21.20;84.80;;;;;;4991313;28;20475;-79
2022/11/29 08:10:26;;;;;;;2.83;2.33;;;21.10;84.80;;;;;;4986084;28;20608;-80
2022/11/29 08:12:53;;;;;;;1.90;1.80;;;21.10;85.00;;;;;;4996626;28;20455;-80
2022/11/29 08:15:21;;;;;;;2.27;2.07;;;21.10;85.00;;;;;;5001798;28;20483;-80
2022/11/29 08:17:49;;;;;;;2.50;2.30;;;21.10;85.00;;;;;;4991060;28;20456;-80
2022/11/29 08:20:17;;;;;;;2.53;2.33;;;21.00;84.80;;;;;;4986358;28;20452;-80
2022/11/29 08:22:43;;;;;;;2.00;1.77;;;21.00;85.00;;;;;;4991057;28;20456;-81
2022/11/29 08:25:12;;;;;;;2.27;2.07;;;21.00;85.10;;;;;;4987412;28;20467;-80
2022/11/29 08:27:39;;;;;;;3.50;1.87;;;21.00;85.10;;;;;;4991905;28;20872;-81
2022/11/29 08:30:07;;;;;;;2.20;2.00;;;21.00;85.10;;;;;;4992039;28;20503;-82
2022/11/29 08:32:34;;;;;;;2.40;2.00;;;21.00;85.00;;;;;;4985599;28;20444;-80
2022/11/29 08:35:00;;;;;;;2.30;2.10;;;21.00;84.80;;;;;;4991604;28;20464;-81
2022/11/29 08:37:27;;;;;;;2.30;2.10;;;21.10;84.70;;;;;;4985507;28;20454;-80
2022/11/29 08:39:54;;;;;;;2.10;1.93;;;21.10;84.60;;;;;;4990776;28;20448;-80
2022/11/29 08:42:23;;;;;;;2.27;1.80;;;21.20;84.50;;;;;;4990612;28;20972;-81
2022/11/29 08:44:49;;;;;;;2.23;1.90;;;21.20;84.30;;;;;;4989390;28;20526;-81
2022/11/29 08:50:03;;;;;;;2.10;1.90;;;21.30;84.00;;;;;;4992260;28;20527;-81
2022/11/29 08:55:15;;;;;;;2.10;1.90;;;21.30;83.90;;;;;;4994326;28;20446;-81
2022/11/29 08:57:43;;;;;;;2.30;2.20;;;21.30;83.90;;;;;;4994995;28;20491;-81
2022/11/29 09:00:11;;;;;;;2.60;2.27;;;21.30;83.80;;;;;;4996176;28;20444;-80
2022/11/29 09:02:38;;;;;;;2.23;1.87;;;21.30;83.70;;;;;;4996844;28;20463;-81
2022/11/29 09:05:06;;;;;;;2.47;1.90;;;21.30;83.90;;;;;;4992339;28;20982;-79
2022/11/29 09:07:34;;;;;;;3.23;2.63;;;21.30;83.80;;;;;;4996197;28;20447;-78
2022/11/29 09:10:03;;;;;;;2.83;1.83;;;21.20;83.70;;;;;;4993905;28;20831;-77
2022/11/29 09:12:30;;;;;;;1.97;1.77;;;21.20;83.80;;;;;;4992798;28;20440;-81
2022/11/29 09:14:58;;;;;;;2.03;1.93;;;21.20;83.90;;;;;;4999152;28;20464;-77
2022/11/29 09:17:25;;;;;;;2.63;1.80;;;21.20;83.80;;;;;;4994869;28;20456;-82
2022/11/29 09:19:52;;;;;;;3.47;3.17;;;21.20;84.30;;;;;;4995412;28;20460;-80
2022/11/29 09:22:19;;;;;;;10.80;2.20;;;21.30;84.00;;;;;;4993495;28;20463;-78
2022/11/29 09:24:45;;;;;;;5.67;2.23;;;21.30;84.50;;;;;;4997874;28;20467;-78
2022/11/29 09:27:12;;;;;;;3.50;2.20;;;21.30;84.70;;;;;;4999128;28;21049;-77
2022/11/29 09:29:39;;;;;;;6.30;3.40;;;21.30;84.80;;;;;;5006033;28;20471;-77
2022/11/29 09:32:07;;;;;;;7.20;3.97;;;21.10;84.80;;;;;;5003247;28;20829;-78
2022/11/29 09:34:34;;;;;;;4.00;2.97;;;21.00;85.10;;;;;;4994743;28;20460;-77
2022/11/29 09:37:00;;;;;;;4.87;3.30;;;21.00;85.30;;;;;;5008801;28;20958;-76
2022/11/29 09:39:27;;;;;;;6.03;3.37;;;20.90;85.40;;;;;;4991116;28;20452;-76
2022/11/29 09:42:17;;;;;;;6.20;3.63;;;20.90;84.60;;;;;;4993799;28;20452;-77
2022/11/29 09:44:54;;;;;;;7.73;2.97;;;20.80;84.20;;;;;;4999370;28;20888;-76
2022/11/29 09:47:39;;;;;;;3.70;2.97;;;20.80;83.90;;;;;;5004157;28;20465;-78
2022/11/29 09:50:20;;;;;;;4.10;3.00;;;20.80;83.60;;;;;;4988451;28;20483;-76
2022/11/29 09:52:55;;;;;;;5.83;3.00;;;20.80;83.50;;;;;;5001745;28;20971;-76
2022/11/29 09:55:41;;;;;;;2.53;2.13;;;20.80;83.40;;;;;;4990779;28;20462;-76
2022/11/29 09:58:13;;;;;;;6.17;2.50;;;20.80;84.00;;;;;;4983462;28;20468;-76
2022/11/29 10:00:48;;;;;;;4.23;3.10;;;20.80;83.10;;;;;;4995042;28;20448;-78
2022/11/29 10:03:24;;;;;;;7.00;3.07;;;20.80;83.00;;;;;;4992796;28;20957;-76
2022/11/29 10:05:56;;;;;;;3.83;2.90;;;20.80;83.10;;;;;;5006296;28;20494;-76
2022/11/29 10:08:31;;;;;;;4.40;2.80;;;20.80;82.80;;;;;;5002667;28;20993;-75
2022/11/29 10:11:07;;;;;;;4.23;2.90;;;20.80;82.80;;;;;;4993119;28;20487;-76
2022/11/29 10:13:35;;;;;;;4.17;2.50;;;20.80;82.70;;;;;;5006271;28;20819;-76
2022/11/29 10:16:09;;;;;;;4.47;2.67;;;20.80;82.60;;;;;;4996860;28;20496;-76
2022/11/29 10:18:43;;;;;;;3.90;2.70;;;20.80;82.70;;;;;;5003672;28;20771;-75
2022/11/29 10:21:14;;;;;;;3.47;2.40;;;20.80;82.60;;;;;;4995117;28;20459;-75
2022/11/29 10:23:45;;;;;;;3.90;2.30;;;20.90;82.60;;;;;;4992745;28;20608;-75
2022/11/29 10:26:13;;;;;;;3.85;3.05;;;20.90;82.60;;;;;;4992667;28;20468;-75
2022/11/29 10:28:46;;;;;;;4.00;2.35;;;20.90;82.60;;;;;;4988627;28;20189;-85
2022/11/29 10:31:19;;;;;;;2.90;2.60;;;21.00;83.30;;;;;;4997552;28;20232;-83
2022/11/29 10:33:48;;;;;;;2.60;1.90;;;21.20;82.80;;;;;;4997216;28;20483;-84
2022/11/29 10:36:20;;;;;;;3.20;2.13;;;21.30;82.60;;;;;;4998056;28;20461;-86
2022/11/29 10:38:48;;;;;;;3.20;2.40;;;21.40;82.50;;;;;;4997609;28;20947;-85
2022/11/29 10:41:20;;;;;;;3.53;2.43;;;21.50;82.60;;;;;;4988388;28;20457;-86
2022/11/29 10:43:47;;;;;;;3.00;2.13;;;21.50;82.60;;;;;;4997689;28;20452;-85
2022/11/29 10:46:24;;;;;;;2.70;2.07;;;21.60;82.70;;;;;;4992084;28;20475;-84
2022/11/29 10:48:53;;;;;;;2.40;1.80;;;21.60;82.90;;;;;;5002621;28;20971;-84
2022/11/29 10:51:20;;;;;;;4.77;2.07;;;21.70;82.80;;;;;;4996932;28;20519;-83
2022/11/29 10:53:47;;;;;;;4.27;2.37;;;21.70;82.80;;;;;;4994679;28;20531;-84
2022/11/29 10:56:21;;;;;;;3.10;2.27;;;21.70;82.80;;;;;;4990415;28;20471;-85
2022/11/29 10:58:56;;;;;;;4.67;2.67;;;21.70;82.90;;;;;;4999029;28;20547;-83
2022/11/29 11:01:25;;;;;;;4.07;2.70;;;21.70;82.90;;;;;;4994807;28;20452;-83
2022/11/29 11:03:54;;;;;;;3.63;1.87;;;21.70;82.90;;;;;;4990587;28;20823;-83
2022/11/29 11:06:22;;;;;;;3.37;2.23;;;21.70;82.90;;;;;;5008599;28;20454;-84
2022/11/29 11:08:52;;;;;;;4.67;2.47;;;21.80;83.10;;;;;;5009854;28;20459;-83
2022/11/29 11:11:25;;;;;;;4.03;2.20;;;21.80;83.20;;;;;;4997003;28;20472;-83
2022/11/29 11:13:59;;;;;;;2.47;2.10;;;21.80;83.20;;;;;;4996850;28;20440;-84
2022/11/29 11:16:26;;;;;;;3.00;2.13;;;21.80;83.20;;;;;;5008172;28;20467;-83
2022/11/29 11:18:54;;;;;;;2.77;1.47;;;21.80;83.20;;;;;;4996574;28;20936;-85
2022/11/29 11:21:25;;;;;;;3.53;2.00;;;21.80;83.20;;;;;;4997343;28;20456;-84
2022/11/29 11:23:55;;;;;;;2.67;2.00;;;21.80;83.20;;;;;;4996339;28;20455;-83
2022/11/29 11:26:22;;;;;;;2.90;1.90;;;21.80;83.20;;;;;;5002691;28;20464;-83
2022/11/29 11:28:53;;;;;;;1.80;1.60;;;21.80;83.30;;;;;;4992100;28;20459;-85
2022/11/29 11:31:28;;;;;;;2.47;2.20;;;21.80;83.30;;;;;;4998743;28;20483;-86
2022/11/29 11:33:57;;;;;;;3.80;2.13;;;21.80;83.30;;;;;;4995767;28;20455;-85
2022/11/29 11:36:26;;;;;;;2.27;2.03;;;21.80;83.20;;;;;;5009285;28;20440;-85
2022/11/29 11:38:55;;;;;;;3.73;2.17;;;21.80;83.40;;;;;;4994302;28;20886;-84
2022/11/29 11:42:35;;;;;;;2.60;1.90;;;21.80;83.40;;;;;;4993806;28;20460;-84
2022/11/29 11:44:32;;;;;;;4.53;1.53;;;21.80;83.40;;;;;;4991623;28;20513;-85
2022/11/29 11:47:00;;;;;;;2.43;1.70;;;21.80;83.60;;;;;;4993850;28;20455;-84
2022/11/29 11:49:31;;;;;;;1.93;1.73;;;21.80;83.50;;;;;;4995881;28;20460;-84
2022/11/29 11:51:59;;;;;;;2.40;2.20;;;21.90;83.70;;;;;;4994248;28;20479;-85
2022/11/29 11:54:29;;;;;;;2.33;2.13;;;21.90;83.60;;;;;;5004636;28;20468;-84
2022/11/29 11:56:56;;;;;;;3.50;1.63;;;21.90;83.70;;;;;;4992446;28;20484;-84
2022/11/29 11:59:26;;;;;;;2.67;1.90;;;21.80;83.50;;;;;;4996477;28;20463;-84
2022/11/29 12:01:53;;;;;;;2.87;1.77;;;21.90;83.70;;;;;;4997034;28;20487;-84
2022/11/29 12:04:24;;;;;;;2.47;1.83;;;21.90;83.80;;;;;;4996678;28;20444;-84
2022/11/29 12:06:56;;;;;;;2.73;1.60;;;21.90;83.80;;;;;;5007625;28;20447;-83
2022/11/29 12:09:33;;;;;;;2.90;1.83;;;21.90;83.80;;;;;;4982738;28;20468;-82
2022/11/29 12:12:07;;;;;;;1.90;1.80;;;21.90;83.70;;;;;;4987719;28;20488;-84
2022/11/29 12:14:45;;;;;;;1.53;1.43;;;21.90;83.70;;;;;;4997064;28;20448;-84
2022/11/29 12:17:19;;;;;;;3.33;2.23;;;21.90;83.60;;;;;;4998010;28;20475;-84
2022/11/29 12:19:59;;;;;;;2.17;1.97;;;21.90;83.60;;;;;;5001023;28;20444;-84
2022/11/29 12:22:35;;;;;;;2.40;2.03;;;21.90;83.60;;;;;;4993907;28;20966;-84
2022/11/29 12:25:06;;;;;;;3.07;1.83;;;21.90;83.50;;;;;;4985930;28;20463;-84
2022/11/29 12:27:33;;;;;;;1.97;1.87;;;21.90;83.70;;;;;;5004115;28;20447;-84
2022/11/29 12:29:59;;;;;;;2.67;1.77;;;22.00;83.70;;;;;;5001486;28;20459;-86
2022/11/29 12:32:40;;;;;;;3.50;2.17;;;21.90;83.90;;;;;;4993013;28;20456;-85
2022/11/29 12:35:27;;;;;;;2.97;2.17;;;21.90;84.00;;;;;;4997632;28;20831;-84
2022/11/29 12:38:05;;;;;;;2.83;1.97;;;22.00;84.10;;;;;;4993769;28;20463;-85
2022/11/29 12:40:39;;;;;;;3.00;2.27;;;22.00;84.00;;;;;;4992810;28;20915;-84
2022/11/29 12:43:14;;;;;;;2.23;2.03;;;22.00;83.90;;;;;;4998224;28;20998;-84
2022/11/29 12:45:48;;;;;;;4.03;2.10;;;21.90;84.20;;;;;;4994912;28;20447;-84
2022/11/29 12:48:28;;;;;;;2.73;1.50;;;21.80;84.90;;;;;;4998953;28;20436;-84
2022/11/29 12:51:07;;;;;;;2.10;1.90;;;21.90;84.80;;;;;;4996698;28;20478;-84
2022/11/29 12:53:47;;;;;;;2.53;1.73;;;21.90;84.40;;;;;;4997305;28;20487;-84
2022/11/29 12:56:21;;;;;;;2.90;2.17;;;21.90;84.40;;;;;;4999172;28;20464;-85
2022/11/29 12:59:05;;;;;;;4.90;1.77;;;21.90;84.70;;;;;;4997087;28;20459;-82
2022/11/29 13:01:40;;;;;;;3.20;1.87;;;21.90;84.60;;;;;;5003966;28;20487;-86
2022/11/29 13:04:17;;;;;;;3.03;1.67;;;21.80;84.60;;;;;;4995990;28;20462;-84
2022/11/29 13:06:52;;;;;;;2.50;1.93;;;21.80;84.80;;;;;;4992593;28;20460;-84
2022/11/29 13:09:45;;;;;;;2.40;1.90;;;21.80;85.10;;;;;;4990947;28;20836;-85
2022/11/29 13:12:18;;;;;;;2.80;1.53;;;21.70;85.40;;;;;;4995143;28;20486;-85
2022/11/29 13:14:54;;;;;;;2.50;2.00;;;21.70;85.70;;;;;;4997672;28;20823;-85
2022/11/29 13:17:30;;;;;;;3.17;2.00;;;21.70;86.00;;;;;;4991438;28;20951;-85
2022/11/29 13:20:02;;;;;;;2.57;2.13;;;21.80;86.30;;;;;;4996539;28;20966;-84
2022/11/29 13:22:35;;;;;;;2.40;1.60;;;21.80;86.50;;;;;;4987254;28;20456;-83
2022/11/29 13:25:11;;;;;;;2.70;1.83;;;21.90;86.50;;;;;;4984408;28;20471;-84
2022/11/29 13:27:42;;;;;;;3.20;2.10;;;21.80;86.70;;;;;;4984201;28;20452;-86